Dalton, GA

12:53 PM EDT on April 24, 2017 (GMT -0400)
Dalton Municipal | | Change Station
Active Advisory: Flood Warning

Elev 709 ft 34.72 °N, 84.87 °W | Updated 18 minutes ago

Overcast
Overcast
61 °F
Feels Like 61 °F
N
4
Wind Variable Wind from North

Today
High -- | Low -- °F
--% Chance of Precip.
Yesterday
High -- | Low -- °F
Precip. -- in
Pressure 29.79 in
Visibility 10.0 miles
Clouds Overcast 1800 ft
Dew Point 57 °F
Humidity 88%
Rainfall 0.01 in
Snow Depth Not available.
6:56 AM 8:19 PM
Waning Crescent, 5% visible
METAR KDNN 241635Z AUTO 35003KT 10SM OVC018 16/14 A2979 RMK AO2
Pressure 29.79 in
Visibility 10.0 miles
Clouds Overcast 1800 ft
Dew Point 57 °F
Humidity 88%
Rainfall 0.01 in
Snow Depth Not available.
6:56 AM 8:19 PM
Waning Crescent, 5% visible
METAR KDNN 241635Z AUTO 35003KT 10SM OVC018 16/14 A2979 RMK AO2

Get Your Daily Forecast Email!

Thanks for signing up!

Be on the lookout for a verification email in your inbox.

You'll start receiving severe weather alerts in your inbox..

×

10-Day Weather Forecast

Almanac

Astronomy

Apr. 24, 2017 Rise Set
Actual Time
Civil Twilight
Nautical Twilight
Astronomical Twilight
Moon
Length of Visible Light
Length of Day
Tomorrow will be .
, % of the Moon is Illuminated

Today's Extremes

State Highs State Lows

Community

WunderPhotos

WunderBlog® & News

Nearby

Air Quality

  Air Quality AQ Index Pollutant
Not available.

Snow Depth

Station Depth Elevation

Earthquake Activity

City Distance Mag. Time & Date
Minimum magnitude displayed is 2.5.

Coastal Water Temperatures

Place Temperature

Stations

Nearby Weather Stations

Station Location Temp. Windchill Dew Point Humidity Wind Precip. Elev Updated Type
                   

Watches & Warnings

Flood Warning
Issued: 10:11 AM EDT Apr. 24, 2017 – National Weather Service

... Flood Warning extended until this evening... the Flood Warning
continues for
the coahulla creek near Keiths Mill near Dalton.
* Until this evening.
* At 10 am Monday the stage was 16.5 feet... and nearly steady.
* Minor flooding is occurring.
* Flood stage is 16.0 feet.
* The river will fall to below flood stage late this afternoon.
* At 16.0 feet... minor flooding begins. Pasture and fields
upstream... right and left bank from the Keiths Mill Road bridge...
and downstream on the left bank begin to flood.
* This crest compares to a previous crest of 16.5 feet on Apr 25 2010.



Lat... Lon 3471 8489 3480 8495 3488 8495 3488 8486
      3480 8488 3474 8486




1011 am EDT Mon Apr 24 2017

The Flood Warning continues for
the Conasauga river near Eton.
* From late this morning until this evening.
* At 10 am Monday the stage was 12.0 feet... and rising slowly.
* Minor flooding is forecast.
* Flood stage is 12.0 feet.
* At 12.0 feet... minor flooding of Woodlands... pasture and fields
begins along the river... upstream and downstream from the gage on
Georgia Highway 286 or Dawnville Road.




Lat... Lon 3473 8489 3499 8485 3499 8475 3491 8480 3472 8483